Time;durP1;ratioP1;P1;durP2;ratioP2;P2;SDS_P1;SDS_P2;PMS_P1;PMS_P2;Temp;Humidity;BMP_temperature;BMP_pressure;BME280_temperature;BME280_humidity;BME280_pressure;Samples;Min_cycle;Max_cycle;Signal;HPM_P1;HPM_P2
2021/03/18 00:02:10;;;;;;;;;;;19.80;55.20;;;;;;5028575;28;1267;-68
2021/03/18 00:04:35;;;;;;;;;;;19.80;55.20;;;;;;5031581;28;1275;-68
2021/03/18 00:07:01;;;;;;;;;;;19.80;55.20;;;;;;5031194;28;1359;-69
2021/03/18 00:09:26;;;;;;;;;;;19.80;55.20;;;;;;5031164;28;1959;-67
2021/03/18 00:11:51;;;;;;;;;;;19.80;55.20;;;;;;5031408;28;1060;-68
2021/03/18 00:14:18;;;;;;;;;;;19.80;55.30;;;;;;5013723;28;1279;-67
2021/03/18 00:16:43;;;;;;;;;;;19.80;55.30;;;;;;5013633;28;2051;-68
2021/03/18 00:19:09;;;;;;;;;;;19.80;55.30;;;;;;5006387;28;1352;-68
2021/03/18 00:21:34;;;;;;;;;;;19.80;55.30;;;;;;5031420;28;1360;-68
2021/03/18 00:24:00;;;;;;;;;;;19.80;55.30;;;;;;5031030;28;1291;-68
2021/03/18 00:26:29;;;;;;;;;;;19.80;55.30;;;;;;5031274;28;1374;-68
2021/03/18 00:28:54;;;;;;;;;;;19.80;55.30;;;;;;5013184;28;1940;-67
2021/03/18 00:31:20;;;;;;;;;;;19.80;55.40;;;;;;5077954;22;2203;-64
2021/03/18 00:33:45;;;;;;;;;;;19.80;55.40;;;;;;5062970;28;1440;-63
2021/03/18 00:36:11;;;;;;;;;;;19.70;55.30;;;;;;5070280;28;1392;-63
2021/03/18 00:38:36;;;;;;;;;;;19.70;55.30;;;;;;5071124;28;1488;-63
2021/03/18 00:41:03;;;;;;;;;;;19.70;55.30;;;;;;5071442;28;1620;-63
2021/03/18 00:43:29;;;;;;;;;;;19.70;55.40;;;;;;5070280;28;1666;-63
2021/03/18 00:45:54;;;;;;;;;;;19.70;55.90;;;;;;5071287;28;1810;-62
2021/03/18 00:48:21;;;;;;;;;;;19.70;55.40;;;;;;5071032;28;1901;-63
2021/03/18 00:50:47;;;;;;;;;;;19.70;55.40;;;;;;5071392;28;1480;-62
2021/03/18 00:53:14;;;;;;;;;;;19.70;55.40;;;;;;5070162;28;1660;-63
2021/03/18 00:55:40;;;;;;;;;;;19.70;55.40;;;;;;5071016;28;1534;-63
2021/03/18 00:58:06;;;;;;;;;;;19.70;55.40;;;;;;5056616;28;1628;-64
2021/03/18 01:00:38;;;;;;;;;;;19.70;55.40;;;;;;5071200;28;1483;-63
2021/03/18 01:03:04;;;;;;;;;;;19.70;55.50;;;;;;5071194;28;1154;-63
2021/03/18 01:05:37;;;;;;;;;;;19.70;55.40;;;;;;5071245;28;1356;-64
2021/03/18 01:08:04;;;;;;;;;;;19.60;55.40;;;;;;5069649;28;1949;-63
2021/03/18 01:10:29;;;;;;;;;;;19.70;55.50;;;;;;5071528;28;1513;-63
2021/03/18 01:12:55;;;;;;;;;;;19.60;55.40;;;;;;5073815;28;1636;-63
2021/03/18 01:15:21;;;;;;;;;;;19.60;55.40;;;;;;5074638;28;1333;-63
2021/03/18 01:17:46;;;;;;;;;;;19.70;55.50;;;;;;5074536;28;1392;-63
2021/03/18 01:20:13;;;;;;;;;;;19.70;55.50;;;;;;5074452;28;1670;-63
2021/03/18 01:22:38;;;;;;;;;;;19.60;55.50;;;;;;5074957;28;1512;-62
2021/03/18 01:25:04;;;;;;;;;;;19.70;55.50;;;;;;5074614;28;1368;-63
2021/03/18 01:27:29;;;;;;;;;;;19.60;55.50;;;;;;5074219;28;1341;-63
2021/03/18 01:29:55;;;;;;;;;;;19.60;55.50;;;;;;5074299;28;1955;-64
2021/03/18 01:32:20;;;;;;;;;;;19.60;55.50;;;;;;5074385;28;1314;-63
2021/03/18 01:34:46;;;;;;;;;;;19.60;55.50;;;;;;5074396;28;1517;-63
2021/03/18 01:37:11;;;;;;;;;;;19.60;55.50;;;;;;5074144;28;1351;-64
2021/03/18 01:39:37;;;;;;;;;;;19.60;55.50;;;;;;5074386;28;1107;-63
2021/03/18 01:42:02;;;;;;;;;;;19.60;55.50;;;;;;5074240;28;1311;-63
2021/03/18 01:44:28;;;;;;;;;;;19.60;55.60;;;;;;5073150;28;1495;-64
2021/03/18 01:46:53;;;;;;;;;;;19.60;55.60;;;;;;5072513;28;1240;-64
2021/03/18 01:49:19;;;;;;;;;;;19.60;55.60;;;;;;5068370;28;1909;-64
2021/03/18 01:51:44;;;;;;;;;;;19.60;55.60;;;;;;5066141;28;1249;-64
2021/03/18 01:54:10;;;;;;;;;;;19.60;55.60;;;;;;5065061;28;1278;-63
2021/03/18 01:56:35;;;;;;;;;;;19.60;55.60;;;;;;5067475;28;1302;-63
2021/03/18 01:59:01;;;;;;;;;;;19.60;55.60;;;;;;5066436;28;1223;-64
2021/03/18 02:01:26;;;;;;;;;;;19.60;55.60;;;;;;5069504;28;1378;-64
2021/03/18 02:03:51;;;;;;;;;;;19.60;55.60;;;;;;5062752;28;1219;-65
2021/03/18 02:06:17;;;;;;;;;;;19.60;55.60;;;;;;5048645;28;1278;-64
2021/03/18 02:08:42;;;;;;;;;;;19.50;56.20;;;;;;5065668;28;1958;-65
2021/03/18 02:11:08;;;;;;;;;;;19.50;55.60;;;;;;5064755;28;1354;-66
2021/03/18 02:13:33;;;;;;;;;;;19.60;55.60;;;;;;5066587;28;1452;-66
2021/03/18 02:16:00;;;;;;;;;;;19.50;55.60;;;;;;5066488;28;1263;-63
2021/03/18 02:18:33;;;;;;;;;;;19.50;55.60;;;;;;5067559;28;1227;-64
2021/03/18 02:21:18;;;;;;;;;;;19.50;55.60;;;;;;5067052;28;1408;-65
2021/03/18 02:23:43;;;;;;;;;;;19.50;55.70;;;;;;5067547;28;1358;-63
2021/03/18 02:26:28;;;;;;;;;;;19.50;55.70;;;;;;5068503;28;1333;-65
2021/03/18 02:29:12;;;;;;;;;;;19.50;55.60;;;;;;5073311;28;1902;-64
2021/03/18 02:31:57;;;;;;;;;;;19.50;55.60;;;;;;5071361;28;1298;-66
2021/03/18 02:34:41;;;;;;;;;;;19.50;55.70;;;;;;5066704;28;1268;-65
2021/03/18 02:37:07;;;;;;;;;;;19.50;55.70;;;;;;5073230;28;1129;-66
2021/03/18 02:39:36;;;;;;;;;;;19.50;55.70;;;;;;5072203;28;1138;-65
2021/03/18 02:42:05;;;;;;;;;;;19.50;55.70;;;;;;5073012;28;1327;-64
2021/03/18 02:44:31;;;;;;;;;;;19.50;55.70;;;;;;5072778;28;1323;-64
2021/03/18 02:47:00;;;;;;;;;;;19.50;55.70;;;;;;5072376;28;1094;-64
2021/03/18 02:49:26;;;;;;;;;;;19.50;55.70;;;;;;5073751;28;1978;-63
2021/03/18 02:51:51;;;;;;;;;;;19.50;55.70;;;;;;5072074;28;1297;-64
2021/03/18 02:54:17;;;;;;;;;;;19.50;55.70;;;;;;5072609;28;1355;-64
2021/03/18 02:56:43;;;;;;;;;;;19.50;55.70;;;;;;5072341;28;1375;-64
2021/03/18 02:59:09;;;;;;;;;;;19.50;55.70;;;;;;5072357;28;1306;-64
2021/03/18 03:01:35;;;;;;;;;;;19.50;55.70;;;;;;5072317;28;1310;-64
2021/03/18 03:04:00;;;;;;;;;;;19.50;55.70;;;;;;5072178;28;1214;-64
2021/03/18 03:06:26;;;;;;;;;;;19.50;55.80;;;;;;5072186;28;1324;-63
2021/03/18 03:08:51;;;;;;;;;;;19.50;55.70;;;;;;5071928;28;1969;-62
2021/03/18 03:11:18;;;;;;;;;;;19.50;55.80;;;;;;5072197;28;1404;-66
2021/03/18 03:13:43;;;;;;;;;;;19.50;55.80;;;;;;5072001;28;1281;-64
2021/03/18 03:16:10;;;;;;;;;;;19.50;55.70;;;;;;5072195;28;1298;-66
2021/03/18 03:18:36;;;;;;;;;;;19.50;55.80;;;;;;5065058;28;1066;-62
2021/03/18 03:21:01;;;;;;;;;;;19.50;55.80;;;;;;5071692;28;1312;-64
2021/03/18 03:23:27;;;;;;;;;;;19.50;55.80;;;;;;5072093;28;1397;-65
2021/03/18 03:25:52;;;;;;;;;;;19.50;55.80;;;;;;5071826;28;1342;-65
2021/03/18 03:28:18;;;;;;;;;;;19.50;55.80;;;;;;5071507;28;1910;-65
2021/03/18 03:30:43;;;;;;;;;;;19.40;55.80;;;;;;5071615;28;1416;-65
2021/03/18 03:33:08;;;;;;;;;;;19.40;55.80;;;;;;5073221;28;1302;-65
2021/03/18 03:35:34;;;;;;;;;;;19.40;55.80;;;;;;5070829;28;1340;-65
2021/03/18 03:37:59;;;;;;;;;;;19.40;55.80;;;;;;5073082;28;1352;-65
2021/03/18 03:40:25;;;;;;;;;;;19.40;55.80;;;;;;5073155;28;1278;-65
2021/03/18 03:42:50;;;;;;;;;;;19.40;55.80;;;;;;5072710;28;1403;-64
2021/03/18 03:45:16;;;;;;;;;;;19.40;55.80;;;;;;5073019;28;1365;-65
2021/03/18 03:47:41;;;;;;;;;;;19.40;55.70;;;;;;5071248;28;1067;-66
2021/03/18 03:50:08;;;;;;;;;;;19.40;55.70;;;;;;5071593;28;1908;-65
2021/03/18 03:52:35;;;;;;;;;;;19.50;55.70;;;;;;5071367;28;1281;-65
2021/03/18 03:55:08;;;;;;;;;;;19.40;55.60;;;;;;5071766;28;1059;-65
2021/03/18 03:57:36;;;;;;;;;;;19.50;55.60;;;;;;5071228;28;1284;-66
2021/03/18 04:00:02;;;;;;;;;;;19.50;55.60;;;;;;5071742;28;1285;-66
2021/03/18 04:02:28;;;;;;;;;;;19.50;55.50;;;;;;5072766;28;1275;-66
2021/03/18 04:04:53;;;;;;;;;;;19.50;55.50;;;;;;5071205;28;1322;-64
2021/03/18 04:07:21;;;;;;;;;;;19.50;55.50;;;;;;5071226;28;1330;-65
2021/03/18 04:09:46;;;;;;;;;;;19.60;55.50;;;;;;5071484;28;1906;-65
2021/03/18 04:12:13;;;;;;;;;;;19.60;55.40;;;;;;5072601;28;1393;-64
2021/03/18 04:14:38;;;;;;;;;;;19.60;55.40;;;;;;5071469;28;1323;-65
2021/03/18 04:17:05;;;;;;;;;;;19.70;55.30;;;;;;5071141;28;1337;-64
2021/03/18 04:19:30;;;;;;;;;;;19.70;55.20;;;;;;5072296;28;1131;-64
2021/03/18 04:21:56;;;;;;;;;;;19.80;55.10;;;;;;5072445;28;1373;-65
2021/03/18 04:24:22;;;;;;;;;;;19.90;54.90;;;;;;5071334;28;1348;-66
2021/03/18 04:26:47;;;;;;;;;;;20.00;54.70;;;;;;5071119;28;1287;-66
2021/03/18 04:29:13;;;;;;;;;;;20.10;54.50;;;;;;5051292;28;1902;-66
2021/03/18 04:31:38;;;;;;;;;;;20.20;54.30;;;;;;5067633;28;1348;-65
2021/03/18 04:34:06;;;;;;;;;;;20.40;54.10;;;;;;5071058;28;1048;-65
2021/03/18 04:36:31;;;;;;;;;;;20.50;53.80;;;;;;5071158;28;1444;-66
2021/03/18 04:38:57;;;;;;;;;;;20.60;53.60;;;;;;5071419;28;1353;-66
2021/03/18 04:41:22;;;;;;;;;;;20.70;53.40;;;;;;5072063;28;1329;-65
2021/03/18 04:43:48;;;;;;;;;;;20.70;53.10;;;;;;5071322;28;1312;-66
2021/03/18 04:46:13;;;;;;;;;;;20.90;53.00;;;;;;5072565;28;1290;-65
2021/03/18 04:48:39;;;;;;;;;;;20.90;52.80;;;;;;5075772;28;1879;-65
2021/03/18 04:51:05;;;;;;;;;;;21.00;52.70;;;;;;5074827;28;1338;-66
2021/03/18 04:53:31;;;;;;;;;;;21.00;52.50;;;;;;5074822;28;1390;-65
2021/03/18 04:55:56;;;;;;;;;;;21.10;52.40;;;;;;5072004;28;1004;-67
2021/03/18 04:58:22;;;;;;;;;;;21.20;52.30;;;;;;5065324;28;1330;-67
2021/03/18 05:00:47;;;;;;;;;;;21.20;52.20;;;;;;5057946;28;1992;-66
2021/03/18 05:03:13;;;;;;;;;;;21.20;52.10;;;;;;5071782;28;1130;-66
2021/03/18 05:05:38;;;;;;;;;;;21.30;52.00;;;;;;5074990;28;1400;-66
2021/03/18 05:08:04;;;;;;;;;;;21.30;52.00;;;;;;5075527;28;1282;-66
2021/03/18 05:10:31;;;;;;;;;;;21.40;51.90;;;;;;5075564;28;2067;-66
2021/03/18 05:12:56;;;;;;;;;;;21.40;51.90;;;;;;5075740;28;1361;-66
2021/03/18 05:15:22;;;;;;;;;;;21.40;51.80;;;;;;5075688;28;1291;-66
2021/03/18 05:17:47;;;;;;;;;;;21.40;51.80;;;;;;5074041;28;1302;-65
2021/03/18 05:20:13;;;;;;;;;;;21.40;51.70;;;;;;5074148;28;1369;-65
2021/03/18 05:22:39;;;;;;;;;;;21.50;51.70;;;;;;5075669;28;1280;-65
2021/03/18 05:25:05;;;;;;;;;;;21.50;51.70;;;;;;5075366;28;1307;-65
2021/03/18 05:27:30;;;;;;;;;;;21.50;51.70;;;;;;5075204;28;1381;-65
2021/03/18 05:29:56;;;;;;;;;;;21.50;51.60;;;;;;5075198;28;1926;-65
2021/03/18 05:32:21;;;;;;;;;;;21.60;52.20;;;;;;5075066;28;1274;-65
2021/03/18 05:34:47;;;;;;;;;;;21.60;51.60;;;;;;5074318;28;1337;-65
2021/03/18 05:37:12;;;;;;;;;;;21.60;51.60;;;;;;5073763;28;1250;-65
2021/03/18 05:39:37;;;;;;;;;;;21.60;51.50;;;;;;5075351;28;1370;-65
2021/03/18 05:42:03;;;;;;;;;;;21.60;51.60;;;;;;5074994;28;1307;-65
2021/03/18 05:44:28;;;;;;;;;;;21.60;51.60;;;;;;5075259;28;1091;-66
2021/03/18 05:46:54;;;;;;;;;;;21.60;51.50;;;;;;5073668;28;1278;-65
2021/03/18 05:49:19;;;;;;;;;;;21.60;51.60;;;;;;5073652;28;1902;-65
2021/03/18 05:51:45;;;;;;;;;;;21.60;51.50;;;;;;5075094;28;1298;-67
2021/03/18 05:54:10;;;;;;;;;;;21.60;51.60;;;;;;5073679;28;1345;-66
2021/03/18 05:56:36;;;;;;;;;;;21.60;51.50;;;;;;5073806;28;1197;-65
2021/03/18 05:59:01;;;;;;;;;;;21.60;51.60;;;;;;5072502;28;1492;-65
2021/03/18 06:01:27;;;;;;;;;;;21.60;51.60;;;;;;5074730;28;1342;-65
2021/03/18 06:03:52;;;;;;;;;;;21.60;51.60;;;;;;5073514;28;1146;-65
2021/03/18 06:06:18;;;;;;;;;;;21.60;51.70;;;;;;5073784;28;1271;-66
2021/03/18 06:08:43;;;;;;;;;;;21.60;51.70;;;;;;5073248;28;1898;-66
2021/03/18 06:11:09;;;;;;;;;;;21.50;51.70;;;;;;5069001;28;1743;-62
2021/03/18 06:13:35;;;;;;;;;;;21.50;51.70;;;;;;5061721;28;1829;-65
2021/03/18 06:16:00;;;;;;;;;;;21.50;51.80;;;;;;5074338;28;1106;-65
2021/03/18 06:18:26;;;;;;;;;;;21.50;51.80;;;;;;5072317;28;1081;-67
2021/03/18 06:20:52;;;;;;;;;;;21.50;51.90;;;;;;5072699;28;1306;-67
2021/03/18 06:23:17;;;;;;;;;;;21.50;51.90;;;;;;5074605;28;1146;-67
2021/03/18 06:25:43;;;;;;;;;;;21.40;51.90;;;;;;5074793;28;1314;-66
2021/03/18 06:28:14;;;;;;;;;;;21.40;52.00;;;;;;5073933;28;1890;-67
2021/03/18 06:30:40;;;;;;;;;;;21.40;52.00;;;;;;5093593;22;3525;-66
2021/03/18 06:33:18;;;;;;;;;;;21.40;52.10;;;;;;5042406;28;1356;-68
2021/03/18 06:35:43;;;;;;;;;;;21.40;52.20;;;;;;5036740;28;1347;-66
2021/03/18 06:38:09;;;;;;;;;;;21.40;52.20;;;;;;5035953;28;1434;-68
2021/03/18 06:40:38;;;;;;;;;;;21.30;52.20;;;;;;5036335;28;1679;-68
2021/03/18 06:43:03;;;;;;;;;;;21.30;52.30;;;;;;5053130;28;1444;-68
2021/03/18 06:45:33;;;;;;;;;;;21.30;52.30;;;;;;5036321;28;1718;-68
2021/03/18 06:48:02;;;;;;;;;;;21.30;52.40;;;;;;5036105;28;1693;-68
2021/03/18 06:50:34;;;;;;;;;;;21.30;52.50;;;;;;5054113;28;1987;-68
2021/03/18 06:53:00;;;;;;;;;;;21.20;52.50;;;;;;5036134;28;1684;-68
2021/03/18 06:55:27;;;;;;;;;;;21.20;52.50;;;;;;5054217;28;1372;-68
2021/03/18 06:58:11;;;;;;;;;;;21.20;52.60;;;;;;5022354;28;1590;-66
2021/03/18 07:00:36;;;;;;;;;;;21.20;52.60;;;;;;5035996;28;1629;-65
2021/03/18 07:03:02;;;;;;;;;;;21.20;52.70;;;;;;5053922;28;1407;-66
2021/03/18 07:05:27;;;;;;;;;;;21.10;52.70;;;;;;5035966;28;1816;-66
2021/03/18 07:07:53;;;;;;;;;;;21.10;52.70;;;;;;5053639;28;1646;-66
2021/03/18 07:10:30;;;;;;;;;;;21.10;52.80;;;;;;5047183;28;2150;-66
2021/03/18 07:12:55;;;;;;;;;;;21.10;52.90;;;;;;5045370;28;2192;-66
2021/03/18 07:15:21;;;;;;;;;;;21.10;52.90;;;;;;5043680;28;1441;-71
2021/03/18 07:17:47;;;;;;;;;;;21.10;52.90;;;;;;5046717;28;1543;-67
2021/03/18 07:20:13;;;;;;;;;;;21.00;52.90;;;;;;5025606;28;1563;-68
2021/03/18 07:22:45;;;;;;;;;;;21.00;52.90;;;;;;5053573;28;1391;-69
2021/03/18 07:25:11;;;;;;;;;;;21.00;53.00;;;;;;5035675;28;1451;-65
2021/03/18 07:27:40;;;;;;;;;;;21.00;53.00;;;;;;5035296;28;1606;-66
2021/03/18 07:30:06;;;;;;;;;;;21.00;53.70;;;;;;5053397;28;1913;-66
2021/03/18 07:32:32;;;;;;;;;;;20.90;53.00;;;;;;5035531;28;1589;-66
2021/03/18 07:34:58;;;;;;;;;;;20.90;53.10;;;;;;5035705;28;1385;-66
2021/03/18 07:37:23;;;;;;;;;;;20.90;53.10;;;;;;5034785;28;1323;-66
2021/03/18 07:39:48;;;;;;;;;;;20.90;53.20;;;;;;5053209;28;1620;-68
2021/03/18 07:42:14;;;;;;;;;;;20.90;53.20;;;;;;5035144;28;1590;-68
2021/03/18 07:44:40;;;;;;;;;;;20.80;53.20;;;;;;5034657;28;1727;-67
2021/03/18 07:47:06;;;;;;;;;;;20.80;53.30;;;;;;5035117;28;1407;-67
2021/03/18 07:49:38;;;;;;;;;;;20.80;53.30;;;;;;5035334;28;1907;-66
2021/03/18 07:52:04;;;;;;;;;;;20.80;53.40;;;;;;5035074;28;1603;-65
2021/03/18 07:54:30;;;;;;;;;;;20.80;53.40;;;;;;5052690;28;1668;-67
2021/03/18 07:56:55;;;;;;;;;;;20.80;53.40;;;;;;5035003;28;1466;-68
2021/03/18 07:59:21;;;;;;;;;;;20.80;53.50;;;;;;5034666;28;1700;-67
2021/03/18 08:01:47;;;;;;;;;;;20.80;53.50;;;;;;5035202;28;1749;-68
2021/03/18 08:04:13;;;;;;;;;;;20.70;53.50;;;;;;5052873;28;1569;-68
2021/03/18 08:06:41;;;;;;;;;;;20.70;53.50;;;;;;5052826;28;1632;-68
2021/03/18 08:09:09;;;;;;;;;;;20.70;53.50;;;;;;5052463;28;1967;-68
2021/03/18 08:11:34;;;;;;;;;;;20.70;53.60;;;;;;5035135;28;1810;-67
2021/03/18 08:14:06;;;;;;;;;;;20.70;53.60;;;;;;5052853;28;1738;-67
2021/03/18 08:16:32;;;;;;;;;;;20.70;53.60;;;;;;5052895;28;1701;-67
2021/03/18 08:18:57;;;;;;;;;;;20.70;53.70;;;;;;5052451;28;1406;-67
2021/03/18 08:21:35;;;;;;;;;;;20.70;53.70;;;;;;5054509;28;1654;-68
2021/03/18 08:24:01;;;;;;;;;;;20.60;53.70;;;;;;5056823;28;1460;-68
2021/03/18 08:26:45;;;;;;;;;;;20.60;53.70;;;;;;5056893;28;1416;-67
2021/03/18 08:29:11;;;;;;;;;;;20.60;53.80;;;;;;5056432;28;1906;-68
2021/03/18 08:31:47;;;;;;;;;;;20.60;53.80;;;;;;5038555;28;1403;-68
2021/03/18 08:34:12;;;;;;;;;;;20.60;53.80;;;;;;5039203;28;1183;-67
2021/03/18 08:36:38;;;;;;;;;;;20.60;53.80;;;;;;5038907;28;1658;-68
2021/03/18 08:39:11;;;;;;;;;;;20.60;53.90;;;;;;5041892;28;2253;-67
2021/03/18 08:41:37;;;;;;;;;;;20.50;53.80;;;;;;5056198;28;1609;-67
2021/03/18 08:44:18;;;;;;;;;;;20.60;53.90;;;;;;5056165;28;1499;-67
2021/03/18 08:46:43;;;;;;;;;;;20.50;53.90;;;;;;5056362;28;1601;-66
2021/03/18 08:49:19;;;;;;;;;;;20.50;53.90;;;;;;5055994;28;1902;-67
2021/03/18 08:51:44;;;;;;;;;;;20.50;53.90;;;;;;5038545;28;1380;-67
2021/03/18 08:54:10;;;;;;;;;;;20.50;54.00;;;;;;5038510;28;1579;-66
2021/03/18 08:56:42;;;;;;;;;;;20.50;54.00;;;;;;5056238;28;1467;-68
2021/03/18 08:59:09;;;;;;;;;;;20.50;54.00;;;;;;5037994;28;1687;-69
2021/03/18 09:01:35;;;;;;;;;;;20.40;54.00;;;;;;5056262;28;1487;-68
2021/03/18 09:04:00;;;;;;;;;;;20.40;54.00;;;;;;5056048;28;1503;-66
2021/03/18 09:06:27;;;;;;;;;;;20.50;54.10;;;;;;5018831;28;1676;-66
2021/03/18 09:08:52;;;;;;;;;;;20.40;54.10;;;;;;5033572;28;1898;-68
2021/03/18 09:11:24;;;;;;;;;;;20.50;54.20;;;;;;5055812;28;1409;-69
2021/03/18 09:13:49;;;;;;;;;;;20.50;54.20;;;;;;5038113;28;1596;-69
2021/03/18 09:16:18;;;;;;;;;;;20.40;54.80;;;;;;5055923;28;1378;-69
2021/03/18 09:18:44;;;;;;;;;;;20.40;54.20;;;;;;5037934;28;1560;-68
2021/03/18 09:21:11;;;;;;;;;;;20.40;54.20;;;;;;5055701;28;1654;-68
2021/03/18 09:23:38;;;;;;;;;;;20.40;54.20;;;;;;5055663;28;1374;-69
2021/03/18 09:26:04;;;;;;;;;;;20.40;54.30;;;;;;5055919;28;1498;-67
2021/03/18 09:28:33;;;;;;;;;;;20.40;54.30;;;;;;5054478;28;1971;-65
2021/03/18 09:30:58;;;;;;;;;;;20.30;54.30;;;;;;5020532;28;1229;-69
2021/03/18 09:33:28;;;;;;;;;;;20.40;54.40;;;;;;5053480;28;1635;-68
2021/03/18 09:35:54;;;;;;;;;;;20.40;54.40;;;;;;5037884;28;1415;-68
2021/03/18 09:38:21;;;;;;;;;;;20.30;54.30;;;;;;5055078;28;1773;-67
2021/03/18 09:40:47;;;;;;;;;;;20.30;54.30;;;;;;5037584;28;1402;-67
2021/03/18 09:43:12;;;;;;;;;;;20.30;54.30;;;;;;5037392;28;1320;-68
2021/03/18 09:45:38;;;;;;;;;;;20.30;54.30;;;;;;5055175;28;1597;-69
2021/03/18 09:48:03;;;;;;;;;;;20.30;54.40;;;;;;5054807;28;1424;-69
2021/03/18 09:50:29;;;;;;;;;;;20.30;54.40;;;;;;5036147;28;1906;-68
2021/03/18 09:53:07;;;;;;;;;;;20.30;54.50;;;;;;5054908;28;1458;-68
2021/03/18 09:55:33;;;;;;;;;;;20.30;54.50;;;;;;5055262;28;1383;-69
2021/03/18 09:58:06;;;;;;;;;;;20.20;54.50;;;;;;5050361;28;2248;-69
2021/03/18 10:00:31;;;;;;;;;;;20.20;54.60;;;;;;5036121;28;1471;-68
2021/03/18 10:02:59;;;;;;;;;;;20.20;54.60;;;;;;5036152;28;1501;-67
2021/03/18 10:05:24;;;;;;;;;;;20.20;54.60;;;;;;5035976;28;1426;-67
2021/03/18 10:07:49;;;;;;;;;;;20.20;54.60;;;;;;5035854;28;1355;-67
2021/03/18 10:10:18;;;;;;;;;;;20.20;54.70;;;;;;5035773;28;1903;-68
2021/03/18 10:12:43;;;;;;;;;;;20.20;54.70;;;;;;5053706;28;1383;-67
2021/03/18 10:15:10;;;;;;;;;;;20.20;54.70;;;;;;5035984;28;1653;-67
2021/03/18 10:17:41;;;;;;;;;;;20.10;54.70;;;;;;5035662;28;1614;-68
2021/03/18 10:20:19;;;;;;;;;;;20.10;54.70;;;;;;5036253;28;1578;-68
2021/03/18 10:22:49;;;;;;;;;;;20.10;54.70;;;;;;5035750;28;1683;-69
2021/03/18 10:25:15;;;;;;;;;;;20.10;54.70;;;;;;5053735;28;1637;-69
2021/03/18 10:27:41;;;;;;;;;;;20.10;54.70;;;;;;5053012;28;1353;-70
2021/03/18 10:30:11;;;;;;;;;;;20.10;54.70;;;;;;5035640;28;1894;-66
2021/03/18 10:32:36;;;;;;;;;;;20.10;54.70;;;;;;5053095;28;1624;-67
2021/03/18 10:35:02;;;;;;;;;;;20.10;54.80;;;;;;5015768;28;1484;-67
2021/03/18 10:37:31;;;;;;;;;;;20.10;54.80;;;;;;5026772;28;1709;-69
2021/03/18 10:40:26;;;;;;;;;;;20.20;54.80;;;;;;5052985;28;1589;-68
2021/03/18 10:42:52;;;;;;;;;;;20.10;54.80;;;;;;5013985;28;1768;-68
2021/03/18 10:45:22;;;;;;;;;;;20.10;54.80;;;;;;5034645;28;1691;-67
2021/03/18 10:47:47;;;;;;;;;;;20.10;54.80;;;;;;5044701;28;1657;-68
2021/03/18 10:50:13;;;;;;;;;;;20.10;54.80;;;;;;5015187;28;1923;-69
2021/03/18 10:52:39;;;;;;;;;;;20.10;54.90;;;;;;5031300;28;1353;-69
2021/03/18 10:55:05;;;;;;;;;;;20.10;54.80;;;;;;5034469;28;1122;-68
2021/03/18 10:57:31;;;;;;;;;;;20.10;54.80;;;;;;5038483;28;1574;-68
2021/03/18 10:59:59;;;;;;;;;;;20.10;54.80;;;;;;5034772;28;1371;-69
2021/03/18 11:02:28;;;;;;;;;;;20.10;54.80;;;;;;5051966;28;1284;-68
2021/03/18 11:04:54;;;;;;;;;;;20.10;54.90;;;;;;5014791;28;1665;-69
2021/03/18 11:07:19;;;;;;;;;;;20.10;54.80;;;;;;5030749;28;1734;-70
2021/03/18 11:10:03;;;;;;;;;;;20.10;54.80;;;;;;5052005;28;1969;-70
2021/03/18 11:12:29;;;;;;;;;;;20.10;54.80;;;;;;5052340;28;1419;-69
2021/03/18 11:14:55;;;;;;;;;;;20.10;54.90;;;;;;5052146;28;1216;-68
2021/03/18 11:17:26;;;;;;;;;;;20.10;54.90;;;;;;5051657;28;1664;-68
2021/03/18 11:20:05;;;;;;;;;;;20.10;54.90;;;;;;5034298;28;1523;-70
2021/03/18 11:22:31;;;;;;;;;;;20.10;54.90;;;;;;5033994;28;1286;-69
2021/03/18 11:25:00;;;;;;;;;;;20.10;54.90;;;;;;5051770;28;1591;-69
2021/03/18 11:27:25;;;;;;;;;;;20.10;54.90;;;;;;5051734;28;1602;-69
2021/03/18 11:29:50;;;;;;;;;;;20.10;54.90;;;;;;5034063;28;1957;-69
2021/03/18 11:32:18;;;;;;;;;;;20.10;54.90;;;;;;5033775;28;1377;-69
2021/03/18 11:34:44;;;;;;;;;;;20.10;54.90;;;;;;5033850;28;1065;-69
2021/03/18 11:37:10;;;;;;;;;;;20.10;54.90;;;;;;5051734;28;1660;-67
2021/03/18 11:39:35;;;;;;;;;;;20.00;54.90;;;;;;5033865;28;1797;-67
2021/03/18 11:42:01;;;;;;;;;;;20.00;54.90;;;;;;5051691;28;1345;-67
2021/03/18 11:44:27;;;;;;;;;;;20.00;54.90;;;;;;5051582;28;1672;-67
2021/03/18 11:46:52;;;;;;;;;;;20.00;54.90;;;;;;5051644;28;1300;-67
2021/03/18 11:49:22;;;;;;;;;;;20.00;54.90;;;;;;5050856;28;2001;-67
2021/03/18 11:51:47;;;;;;;;;;;20.00;54.90;;;;;;5034498;28;1355;-67
2021/03/18 11:54:13;;;;;;;;;;;20.00;54.90;;;;;;5033203;28;1143;-67
2021/03/18 11:56:38;;;;;;;;;;;20.00;54.90;;;;;;5050483;28;1252;-67
2021/03/18 11:59:04;;;;;;;;;;;20.00;54.90;;;;;;5051073;28;1335;-69
2021/03/18 12:01:29;;;;;;;;;;;20.00;54.90;;;;;;5051078;28;1213;-69
2021/03/18 12:03:55;;;;;;;;;;;20.00;54.90;;;;;;5050876;28;1100;-69
2021/03/18 12:06:20;;;;;;;;;;;20.00;54.90;;;;;;5051297;28;1262;-68
2021/03/18 12:08:45;;;;;;;;;;;20.00;54.90;;;;;;5050840;28;1969;-70
2021/03/18 12:11:11;;;;;;;;;;;20.00;55.00;;;;;;5033527;28;1360;-69
2021/03/18 12:13:37;;;;;;;;;;;20.00;55.00;;;;;;5051203;28;1351;-68
2021/03/18 12:16:02;;;;;;;;;;;20.00;55.00;;;;;;5051615;28;1293;-69
2021/03/18 12:18:28;;;;;;;;;;;20.00;55.00;;;;;;5032552;28;1371;-69
2021/03/18 12:20:53;;;;;;;;;;;20.00;55.00;;;;;;5051509;28;1386;-69
2021/03/18 12:23:19;;;;;;;;;;;20.00;55.00;;;;;;5051308;28;1279;-69
2021/03/18 12:25:44;;;;;;;;;;;20.00;55.00;;;;;;5050933;28;1319;-70
2021/03/18 12:28:10;;;;;;;;;;;20.00;55.00;;;;;;5051221;28;1041;-70
2021/03/18 12:33:03;;;;;;;;;;;20.00;55.00;;;;;;5063176;28;3214;-65
2021/03/18 12:35:28;;;;;;;;;;;20.00;55.00;;;;;;5069572;28;1143;-66
2021/03/18 12:37:54;;;;;;;;;;;19.90;54.90;;;;;;5069405;28;1338;-66
2021/03/18 12:40:20;;;;;;;;;;;19.90;54.90;;;;;;5071012;28;1305;-66
2021/03/18 12:42:45;;;;;;;;;;;19.90;55.00;;;;;;5070718;28;1646;-66
2021/03/18 12:45:12;;;;;;;;;;;19.90;55.00;;;;;;5069956;28;1822;-66
2021/03/18 12:47:38;;;;;;;;;;;19.90;55.00;;;;;;5070185;28;1705;-65
2021/03/18 12:50:04;;;;;;;;;;;20.00;55.00;;;;;;5069688;28;1959;-66
2021/03/18 12:52:29;;;;;;;;;;;19.90;55.00;;;;;;5060715;28;1607;-63
2021/03/18 12:54:55;;;;;;;;;;;19.90;55.00;;;;;;5070782;28;1372;-65
2021/03/18 12:57:20;;;;;;;;;;;19.90;55.00;;;;;;5066628;28;2318;-65
2021/03/18 12:59:46;;;;;;;;;;;19.90;55.00;;;;;;5058475;28;1727;-64
2021/03/18 13:02:11;;;;;;;;;;;19.90;54.90;;;;;;5069557;28;1220;-65
2021/03/18 13:04:37;;;;;;;;;;;20.00;55.00;;;;;;5067602;28;1196;-65
2021/03/18 13:07:02;;;;;;;;;;;20.00;54.90;;;;;;5063244;28;1212;-64
2021/03/18 13:09:27;;;;;;;;;;;20.10;54.80;;;;;;5064949;28;1944;-65
2021/03/18 13:11:53;;;;;;;;;;;20.10;54.70;;;;;;5062384;28;1404;-65
2021/03/18 13:14:18;;;;;;;;;;;20.20;54.60;;;;;;5063539;28;1155;-63
2021/03/18 13:16:44;;;;;;;;;;;20.30;54.30;;;;;;5062612;28;1187;-66
2021/03/18 13:19:10;;;;;;;;;;;20.40;54.30;;;;;;5063755;28;1211;-66
2021/03/18 13:21:35;;;;;;;;;;;20.50;54.10;;;;;;5063615;28;1385;-66
2021/03/18 13:24:01;;;;;;;;;;;20.50;53.90;;;;;;5063537;28;1393;-68
2021/03/18 13:26:26;;;;;;;;;;;20.60;53.70;;;;;;5055531;28;1271;-67
2021/03/18 13:28:51;;;;;;;;;;;20.70;53.60;;;;;;5060065;28;1925;-66
2021/03/18 13:31:17;;;;;;;;;;;20.70;53.40;;;;;;5062759;28;1273;-66
2021/03/18 13:33:42;;;;;;;;;;;20.80;53.30;;;;;;5063466;28;1290;-66
2021/03/18 13:36:08;;;;;;;;;;;20.80;53.20;;;;;;5062877;28;1183;-66
2021/03/18 13:38:33;;;;;;;;;;;20.90;53.10;;;;;;5062758;28;1207;-66
2021/03/18 13:40:59;;;;;;;;;;;20.90;53.00;;;;;;5063393;28;1323;-66
2021/03/18 13:43:24;;;;;;;;;;;20.90;52.90;;;;;;5062315;28;1176;-66
2021/03/18 13:45:51;;;;;;;;;;;21.00;52.90;;;;;;5063437;28;1152;-64
2021/03/18 13:48:16;;;;;;;;;;;21.00;52.80;;;;;;5066683;28;1254;-66
2021/03/18 13:50:44;;;;;;;;;;;21.10;52.80;;;;;;5064293;28;1906;-65
2021/03/18 13:53:09;;;;;;;;;;;21.10;53.30;;;;;;5065583;28;1159;-66
2021/03/18 13:55:35;;;;;;;;;;;21.10;52.60;;;;;;5063929;28;1155;-66
2021/03/18 13:58:00;;;;;;;;;;;21.10;52.60;;;;;;5064454;28;1341;-66
2021/03/18 14:00:26;;;;;;;;;;;21.10;52.50;;;;;;5061593;28;1009;-66
2021/03/18 14:02:51;;;;;;;;;;;21.20;52.60;;;;;;5068710;28;1282;-66
2021/03/18 14:05:17;;;;;;;;;;;21.20;52.50;;;;;;5072970;28;1372;-66
2021/03/18 14:07:43;;;;;;;;;;;21.20;52.50;;;;;;5071408;28;1287;-65
2021/03/18 14:10:08;;;;;;;;;;;21.20;52.50;;;;;;5072631;28;1903;-66
2021/03/18 14:12:34;;;;;;;;;;;21.20;52.50;;;;;;5071998;28;1293;-66
2021/03/18 14:14:59;;;;;;;;;;;21.20;52.40;;;;;;5071284;28;1321;-66
2021/03/18 14:17:25;;;;;;;;;;;21.20;52.50;;;;;;5072203;28;1329;-66
2021/03/18 14:19:50;;;;;;;;;;;21.20;52.40;;;;;;5072303;28;1067;-65
2021/03/18 14:22:16;;;;;;;;;;;21.20;52.40;;;;;;5073117;28;1279;-65
2021/03/18 14:24:41;;;;;;;;;;;21.20;52.40;;;;;;5072970;28;1250;-65
2021/03/18 14:27:06;;;;;;;;;;;21.20;52.40;;;;;;5071809;28;1255;-66
2021/03/18 14:29:32;;;;;;;;;;;21.20;52.40;;;;;;5072508;28;1941;-67
2021/03/18 14:31:57;;;;;;;;;;;21.30;52.50;;;;;;5072113;28;1365;-65